Rock Creek, MN (55067)

12:04 AM CST on February 14, 2016 (GMT -0600)
Rush City Regional | | Change Station
CLOSE
Current Station
Airport
Location: Rush City,
Elevation: 922 ft
Nearby Weather Stations

Elev 922 ft 45.70 °N, 92.95 °W | Updated 1 hour ago

Mostly Cloudy
Mostly Cloudy
0 °F
Feels Like -10 °F
N
5
Wind Variable Wind from SE

Today
High -- | Low -- °F
--% Chance of Precip.
Yesterday
High -- | Low -- °F
Precip. -- in
Pressure 30.33 in
Visibility 10.0 miles
Clouds Mostly Cloudy 12000 ft
Windchill -10 °F
Dew Point -12 °F
Humidity 58%
Rainfall 0.00 in
Snow Depth Not available.
7:16 AM 5:36 PM
Waxing Crescent, 38% visible
METAR KROS 140443Z AUTO 13004KT 10SM BKN120 M18/M24 A3033 RMK AO2 T11781243
Pressure 30.33 in
Visibility 10.0 miles
Clouds Mostly Cloudy 12000 ft
Windchill -10 °F
Dew Point -12 °F
Humidity 58%
Rainfall 0.00 in
Snow Depth Not available.
7:16 AM 5:36 PM
Waxing Crescent, 38% visible
METAR KROS 140443Z AUTO 13004KT 10SM BKN120 M18/M24 A3033 RMK AO2 T11781243

10-Day Weather Forecast

Almanac

Astronomy

Feb. 14, 2016 Rise Set
Actual Time
Civil Twilight
Nautical Twilight
Astronomical Twilight
Moon
Length of Visible Light
Length of Day
Tomorrow will be .
, % of the Moon is Illuminated

Today's Extremes

State Highs State Lows

Community

WunderPhotos

Upload Photos

1,892,752 photos uploaded!

WunderBlog® & News

Nearby

Air Quality

  Air Quality AQ Index Pollutant
Not available.

Snow Depth

Station Depth Elevation

Earthquake Activity

City Distance Mag. Time & Date
Minimum magnitude displayed is 2.5.

Coastal Water Temperatures

Place Temperature

Stations

Nearby Weather Stations

Station Location Temp. Windchill Dew Point Humidity Wind Precip. Elev Updated Type
                   

Watches & Warnings

There are currently no watches in effect.